»·PEaware :: N123RG KMER-KSFO

N123RG :: KMER-KSFO

FLIGHT INFORMATION

Flight Status: Arrived
Operator: Privately registered:
United States
More flights under this callsign
Pilot: Anonymous 23223 (23223)
Aircraft: CESSNA 172 SKYHAWK
(C172)
More flights by this aircraft type
Origin: KMER Castle
United States
Destination: KSFO San Francisco Intl
United States
More flights between these airports :: More routes between these airports
Route: CEDES
File this flight plan on PilotEdge
Remarks:
Altitude:
(Current/Filed)
8,000ft
Speed:
(Current/Filed)
135kts
Departed: 11-Feb-19 01:03 PM
Arrived: 11-Feb-19 01:53 PM
Distance/Time
Traveled:
88nm/0:50
Distance/Time
To Go:
Arrived

Flight Plot

Page will automatically refresh every two minutes.

Flight plan parsing failed; only flown route is shown


Map Options




Map Legend


Flown Route
Filed Route
Departure Airport
Arrival Airport
Navaid (VOR, NDB)
Fix

Horizontal Profiles

Position Reports

Time Latitude Longitude Heading Altitude Ground
Speed
11-Feb-19 12:48 37.380637 -120.572151 143 192ft 0kts
11-Feb-19 12:49 37.380637 -120.572151 143 192ft 0kts
11-Feb-19 12:50 37.380637 -120.572151 143 192ft 0kts
11-Feb-19 12:51 37.380636 -120.572150 143 192ft 0kts
11-Feb-19 12:52 37.380636 -120.572150 143 192ft 0kts
11-Feb-19 12:53 37.380636 -120.572150 143 192ft 0kts
11-Feb-19 12:54 37.380635 -120.572149 143 192ft 0kts
11-Feb-19 12:55 37.380635 -120.572149 143 192ft 0kts
11-Feb-19 12:56 37.380635 -120.572149 143 192ft 0kts
11-Feb-19 12:57 37.378010 -120.569465 137 192ft 11kts
11-Feb-19 12:58 37.375242 -120.566343 128 192ft 6kts
11-Feb-19 12:59 37.375428 -120.565282 54 192ft 0kts
11-Feb-19 13:00 37.375428 -120.565281 54 192ft 0kts
11-Feb-19 13:01 37.375856 -120.564543 51 192ft 8kts
11-Feb-19 13:02 37.388393 -120.574370 328 693ft 88kts
11-Feb-19 13:03 37.409488 -120.590312 320 1916ft 90kts
11-Feb-19 13:04 37.433901 -120.603908 42 2435ft 131kts
11-Feb-19 13:05 37.461801 -120.587225 304 2612ft 130kts
11-Feb-19 13:06 37.468668 -120.624804 279 3311ft 98kts
11-Feb-19 13:07 37.471788 -120.659080 278 4103ft 99kts
11-Feb-19 13:08 37.474773 -120.693514 278 4894ft 98kts
11-Feb-19 13:09 37.477683 -120.727394 278 5684ft 96kts
11-Feb-19 13:10 37.480499 -120.760327 278 6469ft 93kts
11-Feb-19 13:11 37.483203 -120.792095 278 7248ft 89kts
11-Feb-19 13:12 37.485804 -120.822749 278 7960ft 91kts
11-Feb-19 13:13 37.489247 -120.860936 278 8004ft 123kts
11-Feb-19 13:14 37.493149 -120.905456 278 7999ft 129kts
11-Feb-19 13:15 37.497027 -120.950948 278 7995ft 131kts
11-Feb-19 13:16 37.500874 -120.996578 278 7994ft 131kts
11-Feb-19 13:17 37.504704 -121.042272 278 7997ft 131kts
11-Feb-19 13:18 37.508525 -121.088091 278 7994ft 131kts
11-Feb-19 13:19 37.512322 -121.133822 278 7992ft 131kts
11-Feb-19 13:20 37.516104 -121.179587 278 7992ft 131kts
11-Feb-19 13:21 37.519863 -121.225330 278 7993ft 131kts
11-Feb-19 13:22 37.523594 -121.270956 278 7994ft 131kts
11-Feb-19 13:23 37.527326 -121.316799 278 7994ft 131kts
11-Feb-19 13:24 37.531033 -121.362546 278 7998ft 130kts
11-Feb-19 13:25 37.534723 -121.408326 278 7995ft 131kts
11-Feb-19 13:26 37.538392 -121.454076 278 7993ft 131kts
11-Feb-19 13:27 37.542057 -121.499993 278 7994ft 131kts
11-Feb-19 13:28 37.545700 -121.545877 278 7992ft 131kts
11-Feb-19 13:29 37.549328 -121.591878 278 7994ft 131kts
11-Feb-19 13:30 37.552860 -121.637782 277 7993ft 131kts
11-Feb-19 13:31 37.543169 -121.679686 236 7973ft 136kts
11-Feb-19 13:32 37.524731 -121.726385 253 7215ft 156kts
11-Feb-19 13:33 37.510954 -121.775705 255 6988ft 141kts
11-Feb-19 13:34 37.498500 -121.821421 255 6993ft 136kts
11-Feb-19 13:35 37.486333 -121.866513 255 6994ft 135kts
11-Feb-19 13:36 37.478871 -121.911884 289 7001ft 134kts
11-Feb-19 13:37 37.485441 -121.960327 281 6579ft 152kts
11-Feb-19 13:38 37.492537 -122.012126 281 5768ft 135kts
11-Feb-19 13:39 37.497976 -122.053789 281 4938ft 112kts
11-Feb-19 13:40 37.504862 -122.092004 296 4155ft 111kts
11-Feb-19 13:41 37.516004 -122.128237 294 3438ft 114kts
11-Feb-19 13:42 37.529414 -122.160282 309 3003ft 97kts
11-Feb-19 13:43 37.544391 -122.186800 302 2724ft 86kts
11-Feb-19 13:44 37.552031 -122.210758 285 1966ft 66kts
11-Feb-19 13:45 37.555926 -122.228738 263 1828ft 56kts
11-Feb-19 13:46 37.565642 -122.246339 292 1823ft 69kts
11-Feb-19 13:47 37.576318 -122.267352 297 1568ft 70kts
11-Feb-19 13:48 37.586875 -122.291328 299 902ft 72kts
11-Feb-19 13:49 37.595306 -122.310881 294 540ft 60kts
11-Feb-19 13:50 37.602963 -122.330700 295 341ft 63kts
11-Feb-19 13:51 37.610798 -122.350570 297 128ft 64kts
11-Feb-19 13:52 37.617661 -122.366715 339 16ft 17kts
11-Feb-19 13:53 37.618409 -122.366475 26 16ft 0kts
11-Feb-19 13:54 37.619146 -122.366839 296 16ft 14kts
11-Feb-19 13:55 37.621817 -122.373228 300 16ft 27kts
11-Feb-19 13:56 37.625182 -122.381183 298 16ft 26kts
11-Feb-19 13:57 37.628155 -122.386323 211 16ft 5kts

Navigation Log

Ident Type
Flight plan parsing failed, navigation log unavailable